sensor_id;sensor_type;location;lat;lon;timestamp;pressure;altitude;pressure_sealevel;temperature;humidity
69855;BME280;57146;48.140;16.304;2022-12-29T00:00:23;99589.69;;;-0.76;84.91
69855;BME280;57146;48.140;16.304;2022-12-29T00:02:50;99593.56;;;-0.85;87.38
69855;BME280;57146;48.140;16.304;2022-12-29T00:05:18;99593.94;;;-0.82;86.27
69855;BME280;57146;48.140;16.304;2022-12-29T00:07:45;99591.56;;;-0.83;86.06
69855;BME280;57146;48.140;16.304;2022-12-29T00:11:01;99588.31;;;-0.79;85.77
69855;BME280;57146;48.140;16.304;2022-12-29T00:13:28;99593.63;;;-0.74;85.42
69855;BME280;57146;48.140;16.304;2022-12-29T00:15:55;99592.13;;;-0.81;85.45
69855;BME280;57146;48.140;16.304;2022-12-29T00:18:27;99589.19;;;-0.85;85.61
69855;BME280;57146;48.140;16.304;2022-12-29T00:20:54;99596.41;;;-0.75;85.07
69855;BME280;57146;48.140;16.304;2022-12-29T00:23:23;99594.13;;;-0.83;85.76
69855;BME280;57146;48.140;16.304;2022-12-29T00:25:50;99596.94;;;-0.85;86.11
69855;BME280;57146;48.140;16.304;2022-12-29T00:28:19;99609.22;;;-0.99;86.50
69855;BME280;57146;48.140;16.304;2022-12-29T00:30:46;99605.19;;;-0.94;86.03
69855;BME280;57146;48.140;16.304;2022-12-29T00:33:16;99608.16;;;-0.91;85.36
69855;BME280;57146;48.140;16.304;2022-12-29T00:39:09;99621.56;;;-1.01;86.55
69855;BME280;57146;48.140;16.304;2022-12-29T00:42:08;99609.22;;;-1.17;85.68
69855;BME280;57146;48.140;16.304;2022-12-29T00:44:59;99607.84;;;-1.19;88.90
69855;BME280;57146;48.140;16.304;2022-12-29T00:47:28;99607.28;;;-1.03;88.96
69855;BME280;57146;48.140;16.304;2022-12-29T00:49:55;99599.91;;;-1.00;88.56
69855;BME280;57146;48.140;16.304;2022-12-29T00:52:23;99598.88;;;-0.99;87.71
69855;BME280;57146;48.140;16.304;2022-12-29T00:54:50;99609.41;;;-1.00;86.24
69855;BME280;57146;48.140;16.304;2022-12-29T00:57:17;99615.84;;;-1.03;86.15
69855;BME280;57146;48.140;16.304;2022-12-29T00:59:45;99612.00;;;-1.00;86.75
69855;BME280;57146;48.140;16.304;2022-12-29T01:02:14;99614.88;;;-1.08;87.03
69855;BME280;57146;48.140;16.304;2022-12-29T01:04:42;99622.03;;;-1.10;86.29
69855;BME280;57146;48.140;16.304;2022-12-29T01:07:09;99621.06;;;-1.09;86.52
69855;BME280;57146;48.140;16.304;2022-12-29T01:09:37;99624.00;;;-1.06;86.12
69855;BME280;57146;48.140;16.304;2022-12-29T01:12:09;99628.50;;;-1.19;85.86
69855;BME280;57146;48.140;16.304;2022-12-29T01:14:37;99628.34;;;-1.25;86.60
69855;BME280;57146;48.140;16.304;2022-12-29T01:17:07;99627.50;;;-1.18;85.20
69855;BME280;57146;48.140;16.304;2022-12-29T01:19:34;99629.66;;;-1.15;85.60
69855;BME280;57146;48.140;16.304;2022-12-29T01:22:01;99628.28;;;-1.18;86.50
69855;BME280;57146;48.140;16.304;2022-12-29T01:24:30;99626.34;;;-1.23;85.81
69855;BME280;57146;48.140;16.304;2022-12-29T01:26:57;99627.50;;;-1.18;86.28
69855;BME280;57146;48.140;16.304;2022-12-29T01:29:26;99623.63;;;-1.28;85.68
69855;BME280;57146;48.140;16.304;2022-12-29T01:31:53;99626.22;;;-1.28;86.05
69855;BME280;57146;48.140;16.304;2022-12-29T01:34:22;99629.28;;;-1.19;86.19
69855;BME280;57146;48.140;16.304;2022-12-29T01:36:48;99634.75;;;-1.27;85.36
69855;BME280;57146;48.140;16.304;2022-12-29T01:39:19;99628.56;;;-1.26;84.75
69855;BME280;57146;48.140;16.304;2022-12-29T01:42:18;99626.28;;;-1.34;85.43
69855;BME280;57146;48.140;16.304;2022-12-29T01:44:57;99624.91;;;-1.37;86.36
69855;BME280;57146;48.140;16.304;2022-12-29T01:50:11;99614.53;;;-1.55;87.95
69855;BME280;57146;48.140;16.304;2022-12-29T01:52:44;99615.41;;;-1.43;87.63
69855;BME280;57146;48.140;16.304;2022-12-29T01:55:52;99616.84;;;-1.47;87.63
69855;BME280;57146;48.140;16.304;2022-12-29T01:58:22;99619.50;;;-1.35;88.90
69855;BME280;57146;48.140;16.304;2022-12-29T02:00:52;99614.69;;;-1.32;88.12
69855;BME280;57146;48.140;16.304;2022-12-29T02:03:20;99610.13;;;-1.30;87.21
69855;BME280;57146;48.140;16.304;2022-12-29T02:08:28;99596.34;;;-1.42;87.11
69855;BME280;57146;48.140;16.304;2022-12-29T02:10:59;99596.34;;;-1.42;87.28
69855;BME280;57146;48.140;16.304;2022-12-29T02:13:53;99597.00;;;-1.28;86.23
69855;BME280;57146;48.140;16.304;2022-12-29T02:34:06;99583.81;;;-1.38;86.68
69855;BME280;57146;48.140;16.304;2022-12-29T02:47:49;99571.19;;;-1.53;87.03
69855;BME280;57146;48.140;16.304;2022-12-29T02:50:28;99572.22;;;-1.54;86.57
69855;BME280;57146;48.140;16.304;2022-12-29T02:53:15;99578.03;;;-1.59;86.10
69855;BME280;57146;48.140;16.304;2022-12-29T02:55:48;99575.03;;;-1.56;87.99
69855;BME280;57146;48.140;16.304;2022-12-29T02:58:20;99576.00;;;-1.57;86.22
69855;BME280;57146;48.140;16.304;2022-12-29T03:01:14;99574.78;;;-1.54;86.44
69855;BME280;57146;48.140;16.304;2022-12-29T03:04:19;99575.31;;;-1.46;86.31
69855;BME280;57146;48.140;16.304;2022-12-29T03:10:17;99580.00;;;-1.61;86.54
69855;BME280;57146;48.140;16.304;2022-12-29T03:16:04;99571.59;;;-1.75;86.97
69855;BME280;57146;48.140;16.304;2022-12-29T03:21:17;99563.94;;;-1.81;87.24
69855;BME280;57146;48.140;16.304;2022-12-29T03:23:49;99560.53;;;-1.82;87.51
69855;BME280;57146;48.140;16.304;2022-12-29T03:26:19;99564.44;;;-1.73;87.08
69855;BME280;57146;48.140;16.304;2022-12-29T03:28:53;99564.06;;;-1.76;87.21
69855;BME280;57146;48.140;16.304;2022-12-29T03:31:24;99570.00;;;-1.76;87.15
69855;BME280;57146;48.140;16.304;2022-12-29T03:33:55;99568.88;;;-1.80;87.32
69855;BME280;57146;48.140;16.304;2022-12-29T03:36:28;99578.59;;;-1.82;87.25
69855;BME280;57146;48.140;16.304;2022-12-29T03:39:08;99574.44;;;-1.83;86.68
69855;BME280;57146;48.140;16.304;2022-12-29T03:41:36;99568.44;;;-1.77;86.52
69855;BME280;57146;48.140;16.304;2022-12-29T03:44:07;99571.44;;;-1.80;87.01
69855;BME280;57146;48.140;16.304;2022-12-29T03:46:34;99565.88;;;-1.77;87.46
69855;BME280;57146;48.140;16.304;2022-12-29T03:49:02;99561.16;;;-1.86;86.75
69855;BME280;57146;48.140;16.304;2022-12-29T03:51:33;99578.59;;;-1.82;86.52
69855;BME280;57146;48.140;16.304;2022-12-29T03:54:04;99578.09;;;-1.90;87.21
69855;BME280;57146;48.140;16.304;2022-12-29T03:56:32;99579.47;;;-1.88;87.63
69855;BME280;57146;48.140;16.304;2022-12-29T03:59:02;99580.66;;;-1.90;87.22
69855;BME280;57146;48.140;16.304;2022-12-29T04:01:37;99580.06;;;-1.93;87.73
69855;BME280;57146;48.140;16.304;2022-12-29T04:04:04;99576.47;;;-1.85;87.25
69855;BME280;57146;48.140;16.304;2022-12-29T04:06:31;99572.69;;;-1.89;87.19
69855;BME280;57146;48.140;16.304;2022-12-29T04:09:04;99574.13;;;-1.93;87.45
69855;BME280;57146;48.140;16.304;2022-12-29T04:11:35;99584.44;;;-1.93;87.37
69855;BME280;57146;48.140;16.304;2022-12-29T04:14:28;99583.75;;;-2.07;87.89
69855;BME280;57146;48.140;16.304;2022-12-29T04:16:55;99587.44;;;-1.96;87.59
69855;BME280;57146;48.140;16.304;2022-12-29T04:19:24;99582.72;;;-1.99;88.12
69855;BME280;57146;48.140;16.304;2022-12-29T04:21:52;99578.91;;;-1.97;87.90
69855;BME280;57146;48.140;16.304;2022-12-29T04:24:20;99572.59;;;-2.01;87.74
69855;BME280;57146;48.140;16.304;2022-12-29T04:26:49;99577.94;;;-1.96;87.77
69855;BME280;57146;48.140;16.304;2022-12-29T04:29:39;99579.59;;;-2.08;88.09
69855;BME280;57146;48.140;16.304;2022-12-29T04:32:17;99575.75;;;-1.99;88.68
69855;BME280;57146;48.140;16.304;2022-12-29T04:35:10;99581.13;;;-2.00;87.11
69855;BME280;57146;48.140;16.304;2022-12-29T04:37:39;99577.97;;;-2.02;87.23
69855;BME280;57146;48.140;16.304;2022-12-29T04:40:07;99576.22;;;-2.08;87.44
69855;BME280;57146;48.140;16.304;2022-12-29T04:42:35;99585.38;;;-2.12;87.74
69855;BME280;57146;48.140;16.304;2022-12-29T04:45:03;99587.31;;;-2.08;87.81
69855;BME280;57146;48.140;16.304;2022-12-29T04:47:51;99582.72;;;-1.99;87.68
69855;BME280;57146;48.140;16.304;2022-12-29T04:50:43;99585.91;;;-2.04;87.62
69855;BME280;57146;48.140;16.304;2022-12-29T04:53:35;99579.97;;;-2.04;87.66
69855;BME280;57146;48.140;16.304;2022-12-29T04:56:04;99571.22;;;-2.03;87.44
69855;BME280;57146;48.140;16.304;2022-12-29T04:58:31;99578.81;;;-2.08;86.70
69855;BME280;57146;48.140;16.304;2022-12-29T05:00:59;99568.13;;;-2.12;87.52
69855;BME280;57146;48.140;16.304;2022-12-29T05:03:29;99577.75;;;-2.01;87.00
69855;BME280;57146;48.140;16.304;2022-12-29T05:05:57;99575.63;;;-2.10;86.88
69855;BME280;57146;48.140;16.304;2022-12-29T05:08:24;99572.69;;;-2.14;87.44
69855;BME280;57146;48.140;16.304;2022-12-29T05:10:57;99575.44;;;-2.09;86.78
69855;BME280;57146;48.140;16.304;2022-12-29T05:13:24;99576.63;;;-2.11;87.27
69855;BME280;57146;48.140;16.304;2022-12-29T05:15:52;99582.94;;;-2.07;86.71
69855;BME280;57146;48.140;16.304;2022-12-29T05:18:22;99578.06;;;-2.15;86.92
69855;BME280;57146;48.140;16.304;2022-12-29T05:20:50;99581.78;;;-2.11;87.10
69855;BME280;57146;48.140;16.304;2022-12-29T05:23:19;99572.50;;;-2.12;86.83
69855;BME280;57146;48.140;16.304;2022-12-29T05:25:53;99579.44;;;-2.13;87.35
69855;BME280;57146;48.140;16.304;2022-12-29T05:28:28;99584.78;;;-2.14;86.99
69855;BME280;57146;48.140;16.304;2022-12-29T05:31:06;99579.59;;;-2.08;87.23
69855;BME280;57146;48.140;16.304;2022-12-29T05:33:34;99584.00;;;-2.15;87.56
69855;BME280;57146;48.140;16.304;2022-12-29T05:36:05;99584.25;;;-2.23;87.10
69855;BME280;57146;48.140;16.304;2022-12-29T05:38:34;99586.66;;;-2.28;88.24
69855;BME280;57146;48.140;16.304;2022-12-29T05:41:02;99593.19;;;-2.26;88.05
69855;BME280;57146;48.140;16.304;2022-12-29T05:43:47;99590.47;;;-2.31;87.44
69855;BME280;57146;48.140;16.304;2022-12-29T05:46:28;99582.66;;;-2.24;88.01
69855;BME280;57146;48.140;16.304;2022-12-29T05:49:13;99595.03;;;-2.33;87.67
69855;BME280;57146;48.140;16.304;2022-12-29T05:51:59;99593.59;;;-2.29;88.07
69855;BME280;57146;48.140;16.304;2022-12-29T05:54:27;99588.84;;;-2.32;87.83
69855;BME280;57146;48.140;16.304;2022-12-29T05:56:55;99593.63;;;-2.35;88.46
69855;BME280;57146;48.140;16.304;2022-12-29T05:59:23;99588.28;;;-2.34;88.32
69855;BME280;57146;48.140;16.304;2022-12-29T06:01:53;99591.03;;;-2.29;87.80
69855;BME280;57146;48.140;16.304;2022-12-29T06:04:23;99589.50;;;-2.36;88.15
69855;BME280;57146;48.140;16.304;2022-12-29T06:06:51;99590.13;;;-2.41;87.99
69855;BME280;57146;48.140;16.304;2022-12-29T06:09:26;99596.44;;;-2.37;88.17
69855;BME280;57146;48.140;16.304;2022-12-29T06:11:55;99596.88;;;-2.47;87.83
69855;BME280;57146;48.140;16.304;2022-12-29T06:14:22;99594.13;;;-2.52;88.20
69855;BME280;57146;48.140;16.304;2022-12-29T06:16:49;99596.13;;;-2.54;88.29
69855;BME280;57146;48.140;16.304;2022-12-29T06:19:16;99594.94;;;-2.51;88.68
69855;BME280;57146;48.140;16.304;2022-12-29T06:21:43;99588.56;;;-2.49;87.95
69855;BME280;57146;48.140;16.304;2022-12-29T06:24:11;99592.97;;;-2.56;87.71
69855;BME280;57146;48.140;16.304;2022-12-29T06:26:38;99588.56;;;-2.49;87.70
69855;BME280;57146;48.140;16.304;2022-12-29T06:29:05;99591.34;;;-2.50;87.82
69855;BME280;57146;48.140;16.304;2022-12-29T06:31:32;99597.69;;;-2.53;87.25
69855;BME280;57146;48.140;16.304;2022-12-29T06:34:00;99600.47;;;-2.48;87.83
69855;BME280;57146;48.140;16.304;2022-12-29T06:36:34;99594.50;;;-2.42;87.46
69855;BME280;57146;48.140;16.304;2022-12-29T06:39:01;99600.81;;;-2.37;87.28
69855;BME280;57146;48.140;16.304;2022-12-29T06:41:28;99603.19;;;-2.43;87.90
69855;BME280;57146;48.140;16.304;2022-12-29T06:44:18;99614.13;;;-2.47;87.71
69855;BME280;57146;48.140;16.304;2022-12-29T06:47:00;99617.53;;;-2.53;87.72
69855;BME280;57146;48.140;16.304;2022-12-29T06:49:27;99615.97;;;-2.54;88.00
69855;BME280;57146;48.140;16.304;2022-12-29T06:51:54;99613.16;;;-2.53;88.03
69855;BME280;57146;48.140;16.304;2022-12-29T06:54:21;99625.63;;;-2.43;87.42
69855;BME280;57146;48.140;16.304;2022-12-29T06:56:48;99622.41;;;-2.38;87.73
69855;BME280;57146;48.140;16.304;2022-12-29T06:59:15;99630.16;;;-2.38;87.67
69855;BME280;57146;48.140;16.304;2022-12-29T07:01:42;99641.09;;;-2.43;87.35
69855;BME280;57146;48.140;16.304;2022-12-29T07:04:09;99630.97;;;-2.38;88.10
69855;BME280;57146;48.140;16.304;2022-12-29T07:06:36;99624.81;;;-2.37;88.39
69855;BME280;57146;48.140;16.304;2022-12-29T07:09:03;99629.75;;;-2.35;88.51
69855;BME280;57146;48.140;16.304;2022-12-29T07:11:31;99632.53;;;-2.37;87.78
69855;BME280;57146;48.140;16.304;2022-12-29T07:13:58;99632.13;;;-2.34;88.94
69855;BME280;57146;48.140;16.304;2022-12-29T07:16:28;99631.72;;;-2.31;89.04
69855;BME280;57146;48.140;16.304;2022-12-29T07:18:56;99622.75;;;-2.28;88.98
69855;BME280;57146;48.140;16.304;2022-12-29T07:21:23;99631.09;;;-2.26;89.30
69855;BME280;57146;48.140;16.304;2022-12-29T07:23:50;99621.72;;;-2.21;89.78
69855;BME280;57146;48.140;16.304;2022-12-29T07:26:17;99619.75;;;-2.19;89.56
69855;BME280;57146;48.140;16.304;2022-12-29T07:28:44;99617.75;;;-2.17;89.55
69855;BME280;57146;48.140;16.304;2022-12-29T07:31:16;99616.34;;;-2.12;90.00
69855;BME280;57146;48.140;16.304;2022-12-29T07:33:44;99612.53;;;-2.10;90.91
69855;BME280;57146;48.140;16.304;2022-12-29T07:36:13;99616.50;;;-2.07;91.54
69855;BME280;57146;48.140;16.304;2022-12-29T07:38:40;99612.72;;;-2.05;91.20
69855;BME280;57146;48.140;16.304;2022-12-29T07:41:07;99617.66;;;-2.03;91.60
69855;BME280;57146;48.140;16.304;2022-12-29T07:43:35;99619.03;;;-2.01;91.69
69855;BME280;57146;48.140;16.304;2022-12-29T07:46:22;99628.34;;;-2.00;92.35
69855;BME280;57146;48.140;16.304;2022-12-29T07:49:10;99620.97;;;-1.96;92.43
69855;BME280;57146;48.140;16.304;2022-12-29T07:51:40;99617.94;;;-1.86;92.50
69855;BME280;57146;48.140;16.304;2022-12-29T07:54:08;99624.25;;;-1.82;92.91
69855;BME280;57146;48.140;16.304;2022-12-29T07:56:35;99621.06;;;-1.78;92.76
69855;BME280;57146;48.140;16.304;2022-12-29T07:59:02;99619.66;;;-1.74;93.02
69855;BME280;57146;48.140;16.304;2022-12-29T08:01:29;99623.16;;;-1.68;92.51
69855;BME280;57146;48.140;16.304;2022-12-29T08:03:56;99617.81;;;-1.66;92.84
69855;BME280;57146;48.140;16.304;2022-12-29T08:06:23;99615.78;;;-1.64;93.16
69855;BME280;57146;48.140;16.304;2022-12-29T08:08:50;99623.72;;;-1.59;93.58
69855;BME280;57146;48.140;16.304;2022-12-29T08:11:17;99624.63;;;-1.54;94.30
69855;BME280;57146;48.140;16.304;2022-12-29T08:13:44;99626.59;;;-1.49;94.35
69855;BME280;57146;48.140;16.304;2022-12-29T08:16:11;99619.78;;;-1.43;94.28
69855;BME280;57146;48.140;16.304;2022-12-29T08:18:38;99615.56;;;-1.38;95.13
69855;BME280;57146;48.140;16.304;2022-12-29T08:21:30;99623.47;;;-1.33;95.20
69855;BME280;57146;48.140;16.304;2022-12-29T08:23:59;99614.28;;;-1.29;94.89
69855;BME280;57146;48.140;16.304;2022-12-29T08:26:26;99618.59;;;-1.23;95.60
69855;BME280;57146;48.140;16.304;2022-12-29T08:28:54;99617.59;;;-1.22;95.51
69855;BME280;57146;48.140;16.304;2022-12-29T08:31:22;99615.19;;;-1.16;95.88
69855;BME280;57146;48.140;16.304;2022-12-29T08:33:49;99625.63;;;-1.11;96.06
69855;BME280;57146;48.140;16.304;2022-12-29T08:36:17;99616.69;;;-1.09;96.31
69855;BME280;57146;48.140;16.304;2022-12-29T08:38:44;99619.63;;;-1.05;96.79
69855;BME280;57146;48.140;16.304;2022-12-29T08:41:11;99617.41;;;-1.02;96.61
69855;BME280;57146;48.140;16.304;2022-12-29T08:43:38;99617.75;;;-0.98;97.37
69855;BME280;57146;48.140;16.304;2022-12-29T08:46:05;99616.56;;;-0.95;96.41
69855;BME280;57146;48.140;16.304;2022-12-29T08:48:32;99613.31;;;-0.91;96.54
69855;BME280;57146;48.140;16.304;2022-12-29T08:50:59;99615.91;;;-0.91;96.70
69855;BME280;57146;48.140;16.304;2022-12-29T08:53:26;99608.50;;;-0.87;97.00
69855;BME280;57146;48.140;16.304;2022-12-29T08:55:58;99611.44;;;-0.84;95.70
69855;BME280;57146;48.140;16.304;2022-12-29T08:58:39;99617.19;;;-0.82;96.07
69855;BME280;57146;48.140;16.304;2022-12-29T09:01:06;99619.91;;;-0.77;95.68
69855;BME280;57146;48.140;16.304;2022-12-29T09:03:34;99610.16;;;-0.75;95.09
69855;BME280;57146;48.140;16.304;2022-12-29T09:06:21;99611.50;;;-0.72;96.07
69855;BME280;57146;48.140;16.304;2022-12-29T09:08:54;99595.78;;;-0.70;95.84
69855;BME280;57146;48.140;16.304;2022-12-29T09:11:23;99604.88;;;-0.68;95.05
69855;BME280;57146;48.140;16.304;2022-12-29T09:13:51;99602.09;;;-0.66;94.47
69855;BME280;57146;48.140;16.304;2022-12-29T09:16:21;99605.47;;;-0.66;95.07
69855;BME280;57146;48.140;16.304;2022-12-29T09:18:48;99602.09;;;-0.66;93.90
69855;BME280;57146;48.140;16.304;2022-12-29T09:21:15;99599.34;;;-0.72;94.36
69855;BME280;57146;48.140;16.304;2022-12-29T09:23:44;99595.78;;;-0.70;93.47
69855;BME280;57146;48.140;16.304;2022-12-29T09:26:11;99595.78;;;-0.70;93.30
69855;BME280;57146;48.140;16.304;2022-12-29T09:28:41;99602.16;;;-0.73;94.07
69855;BME280;57146;48.140;16.304;2022-12-29T09:31:11;99587.69;;;-0.74;93.84
69855;BME280;57146;48.140;16.304;2022-12-29T09:33:38;99591.59;;;-0.72;94.16
69855;BME280;57146;48.140;16.304;2022-12-29T09:36:07;99581.13;;;-0.77;94.36
69855;BME280;57146;48.140;16.304;2022-12-29T09:38:35;99569.00;;;-0.76;94.51
69855;BME280;57146;48.140;16.304;2022-12-29T09:41:13;99571.94;;;-0.73;94.70
69855;BME280;57146;48.140;16.304;2022-12-29T09:46:32;99574.09;;;-0.69;94.23
69855;BME280;57146;48.140;16.304;2022-12-29T09:49:16;99575.09;;;-0.70;95.16
69855;BME280;57146;48.140;16.304;2022-12-29T09:51:52;99575.22;;;-0.65;95.28
69855;BME280;57146;48.140;16.304;2022-12-29T09:54:41;99570.84;;;-0.65;95.57
69855;BME280;57146;48.140;16.304;2022-12-29T09:57:21;99575.22;;;-0.65;95.48
69855;BME280;57146;48.140;16.304;2022-12-29T09:59:58;99570.63;;;-0.63;95.44
69855;BME280;57146;48.140;16.304;2022-12-29T10:02:38;99561.28;;;-0.64;95.88
69855;BME280;57146;48.140;16.304;2022-12-29T10:05:18;99551.53;;;-0.62;95.56
69855;BME280;57146;48.140;16.304;2022-12-29T10:16:13;99555.16;;;-0.52;96.31
69855;BME280;57146;48.140;16.304;2022-12-29T10:24:16;99564.84;;;-0.47;97.36
69855;BME280;57146;48.140;16.304;2022-12-29T10:27:15;99569.56;;;-0.44;97.24
69855;BME280;57146;48.140;16.304;2022-12-29T10:29:48;99561.97;;;-0.39;96.58
69855;BME280;57146;48.140;16.304;2022-12-29T10:32:41;99554.97;;;-0.38;97.25
69855;BME280;57146;48.140;16.304;2022-12-29T10:35:36;99563.09;;;-0.35;96.96
69855;BME280;57146;48.140;16.304;2022-12-29T10:41:18;99559.06;;;-0.31;97.56
69855;BME280;57146;48.140;16.304;2022-12-29T10:43:48;99551.84;;;-0.29;97.19
69855;BME280;57146;48.140;16.304;2022-12-29T10:46:23;99553.78;;;-0.24;97.41
69855;BME280;57146;48.140;16.304;2022-12-29T10:48:50;99553.56;;;-0.22;97.74
69855;BME280;57146;48.140;16.304;2022-12-29T10:51:54;99559.50;;;-0.22;97.45
69855;BME280;57146;48.140;16.304;2022-12-29T10:54:25;99558.72;;;-0.22;98.30
69855;BME280;57146;48.140;16.304;2022-12-29T10:59:30;99553.13;;;-0.19;98.00
69855;BME280;57146;48.140;16.304;2022-12-29T11:07:24;99555.81;;;-0.14;97.63
69855;BME280;57146;48.140;16.304;2022-12-29T11:09:53;99536.38;;;-0.17;97.30
69855;BME280;57146;48.140;16.304;2022-12-29T11:12:26;99538.50;;;-0.14;98.16
69855;BME280;57146;48.140;16.304;2022-12-29T11:17:28;99547.94;;;-0.08;98.18
69855;BME280;57146;48.140;16.304;2022-12-29T11:19:56;99551.91;;;-0.05;97.84
69855;BME280;57146;48.140;16.304;2022-12-29T11:22:27;99542.56;;;-0.06;98.20
69855;BME280;57146;48.140;16.304;2022-12-29T11:25:06;99540.75;;;-0.06;98.46
69855;BME280;57146;48.140;16.304;2022-12-29T11:27:37;99552.47;;;-0.03;97.81
69855;BME280;57146;48.140;16.304;2022-12-29T11:30:22;99542.69;;;-0.01;97.53
69855;BME280;57146;48.140;16.304;2022-12-29T11:32:53;99540.31;;;-0.03;98.06
69855;BME280;57146;48.140;16.304;2022-12-29T11:35:32;99537.94;;;-0.04;97.45
69855;BME280;57146;48.140;16.304;2022-12-29T11:38:12;99542.34;;;-0.05;97.56
69855;BME280;57146;48.140;16.304;2022-12-29T11:40:45;99528.75;;;0.00;97.80
69855;BME280;57146;48.140;16.304;2022-12-29T11:45:52;99521.19;;;-0.02;98.40
69855;BME280;57146;48.140;16.304;2022-12-29T11:48:21;99518.41;;;0.00;98.47
69855;BME280;57146;48.140;16.304;2022-12-29T11:50:59;99528.75;;;0.00;97.68
69855;BME280;57146;48.140;16.304;2022-12-29T11:53:39;99528.28;;;0.03;97.83
69855;BME280;57146;48.140;16.304;2022-12-29T11:56:16;99519.53;;;0.04;97.58
69855;BME280;57146;48.140;16.304;2022-12-29T11:58:45;99519.06;;;0.07;98.19
69855;BME280;57146;48.140;16.304;2022-12-29T12:01:39;99516.47;;;0.07;98.90
69855;BME280;57146;48.140;16.304;2022-12-29T12:04:15;99524.59;;;0.11;97.79
69855;BME280;57146;48.140;16.304;2022-12-29T12:06:59;99510.19;;;0.15;98.59
69855;BME280;57146;48.140;16.304;2022-12-29T12:09:53;99518.50;;;0.17;98.44
69855;BME280;57146;48.140;16.304;2022-12-29T12:12:41;99509.16;;;0.16;98.29
69855;BME280;57146;48.140;16.304;2022-12-29T12:15:22;99513.88;;;0.19;98.52
69855;BME280;57146;48.140;16.304;2022-12-29T12:18:02;99511.06;;;0.20;98.61
69855;BME280;57146;48.140;16.304;2022-12-29T12:20:58;99506.00;;;0.26;98.20
69855;BME280;57146;48.140;16.304;2022-12-29T12:23:40;99507.59;;;0.27;98.64
69855;BME280;57146;48.140;16.304;2022-12-29T12:26:19;99508.50;;;0.32;97.90
69855;BME280;57146;48.140;16.304;2022-12-29T12:29:03;99505.31;;;0.30;97.97
69855;BME280;57146;48.140;16.304;2022-12-29T12:31:37;99497.56;;;0.30;98.89
69855;BME280;57146;48.140;16.304;2022-12-29T12:34:15;99499.91;;;0.32;98.82
69855;BME280;57146;48.140;16.304;2022-12-29T12:45:55;99491.91;;;0.45;98.27
69855;BME280;57146;48.140;16.304;2022-12-29T12:55:02;99481.66;;;0.50;98.56
69855;BME280;57146;48.140;16.304;2022-12-29T13:00:19;99474.31;;;0.59;98.69
69855;BME280;57146;48.140;16.304;2022-12-29T13:03:13;99472.06;;;0.62;98.84
69855;BME280;57146;48.140;16.304;2022-12-29T13:05:56;99473.63;;;0.63;98.67
69855;BME280;57146;48.140;16.304;2022-12-29T13:17:08;99475.06;;;0.71;98.55
69855;BME280;57146;48.140;16.304;2022-12-29T13:20:06;99479.47;;;0.70;98.01
69855;BME280;57146;48.140;16.304;2022-12-29T13:22:49;99473.63;;;0.75;97.94
69855;BME280;57146;48.140;16.304;2022-12-29T13:37:09;99488.56;;;0.85;98.05
69855;BME280;57146;48.140;16.304;2022-12-29T13:39:43;99487.75;;;0.84;97.43
69855;BME280;57146;48.140;16.304;2022-12-29T13:42:12;99492.94;;;0.84;98.31
69855;BME280;57146;48.140;16.304;2022-12-29T13:44:50;99490.16;;;0.86;98.11
69855;BME280;57146;48.140;16.304;2022-12-29T13:47:27;99492.50;;;0.87;97.79
69855;BME280;57146;48.140;16.304;2022-12-29T13:50:26;99487.88;;;0.89;98.03
69855;BME280;57146;48.140;16.304;2022-12-29T13:59:11;99484.59;;;0.94;97.85
69855;BME280;57146;48.140;16.304;2022-12-29T14:02:03;99480.19;;;0.94;97.22
69855;BME280;57146;48.140;16.304;2022-12-29T14:04:58;99482.31;;;0.98;97.75
69855;BME280;57146;48.140;16.304;2022-12-29T14:07:25;99476.34;;;0.97;97.42
69855;BME280;57146;48.140;16.304;2022-12-29T14:09:55;99490.09;;;0.98;97.39
69855;BME280;57146;48.140;16.304;2022-12-29T14:12:32;99486.47;;;0.99;97.53
69855;BME280;57146;48.140;16.304;2022-12-29T14:18:01;99483.34;;;0.97;96.97
69855;BME280;57146;48.140;16.304;2022-12-29T14:20:33;99496.84;;;0.99;96.57
69855;BME280;57146;48.140;16.304;2022-12-29T14:23:16;99486.72;;;0.97;97.25
69855;BME280;57146;48.140;16.304;2022-12-29T14:25:53;99490.88;;;0.98;97.26
69855;BME280;57146;48.140;16.304;2022-12-29T14:28:29;99491.91;;;0.97;96.71
69855;BME280;57146;48.140;16.304;2022-12-29T14:37:23;99503.94;;;1.03;96.78
69855;BME280;57146;48.140;16.304;2022-12-29T14:39:42;99508.00;;;0.99;96.27
69855;BME280;57146;48.140;16.304;2022-12-29T14:47:41;99485.69;;;0.98;96.34
69855;BME280;57146;48.140;16.304;2022-12-29T14:50:16;99481.88;;;1.01;96.26
69855;BME280;57146;48.140;16.304;2022-12-29T14:55:47;99487.25;;;0.99;97.35
69855;BME280;57146;48.140;16.304;2022-12-29T14:58:44;99487.72;;;0.96;97.01
69855;BME280;57146;48.140;16.304;2022-12-29T15:01:20;99490.56;;;0.94;97.24
69855;BME280;57146;48.140;16.304;2022-12-29T15:03:54;99507.78;;;1.01;97.51
69855;BME280;57146;48.140;16.304;2022-12-29T15:06:25;99509.34;;;1.02;97.17
69855;BME280;57146;48.140;16.304;2022-12-29T15:09:12;99497.97;;;1.03;97.60
69855;BME280;57146;48.140;16.304;2022-12-29T15:11:48;99497.75;;;1.04;97.03
69855;BME280;57146;48.140;16.304;2022-12-29T15:16:58;99494.59;;;1.02;96.51
69855;BME280;57146;48.140;16.304;2022-12-29T15:19:26;99490.97;;;1.03;96.45
69855;BME280;57146;48.140;16.304;2022-12-29T15:21:54;99497.63;;;0.99;96.59
69855;BME280;57146;48.140;16.304;2022-12-29T15:24:23;99480.06;;;1.01;96.42
69855;BME280;57146;48.140;16.304;2022-12-29T15:26:52;99474.88;;;1.01;96.39
69855;BME280;57146;48.140;16.304;2022-12-29T15:29:41;99483.44;;;1.02;96.28
69855;BME280;57146;48.140;16.304;2022-12-29T15:32:20;99484.66;;;0.99;95.98
69855;BME280;57146;48.140;16.304;2022-12-29T15:34:51;99479.72;;;0.98;96.45
69855;BME280;57146;48.140;16.304;2022-12-29T15:37:21;99482.78;;;0.94;96.20
69855;BME280;57146;48.140;16.304;2022-12-29T15:39:49;99486.94;;;0.95;96.31
69855;BME280;57146;48.140;16.304;2022-12-29T15:45:06;99484.63;;;0.82;95.65
69855;BME280;57146;48.140;16.304;2022-12-29T15:47:38;99497.25;;;0.79;95.87
69855;BME280;57146;48.140;16.304;2022-12-29T15:50:23;99499.97;;;0.72;95.84
69855;BME280;57146;48.140;16.304;2022-12-29T15:52:51;99487.91;;;0.78;96.10